International Virtual Aviation Organisation

Russian Federation and Kazakhstan MCD

 

Карточка аэропорта ULAA

Внимание!
Информация на этой странице в стадии наполнения.
Если вы не увидели какой-то информации, или заметили неточность - пожалуйста сообщите нам!
Спасибо!
Команда RU-STAFF
Название аэропортаТалаги
Название аэропорта (англ.)Talagi
Превышение62 ft. (18.9 m.)
Координаты64°36.018', 40°43.002'
Высота перехода800m
Эшелон переходаQFE>=760mm:FL040; QFE<760=>733:FL050; QFE<733:FL060
Коды ответчика3120-3127
Зона ОрВДАрхангельск РПИ (ULAA)
Данные METARULAA 231230Z 34004MPS 300V020 9999 -SHSN BKN020CB BKN046 M03/M05 Q0996 R26/590337 NOSIG RMK QFE746/0995
Проноз погоды (TAF)ULAA 231100Z 2312/2412 33003G09MPS 3100 -SN FEW006 BKN011 TEMPO 2312/2316 29004G14MPS 0700 +SHSN BKN003 BKN010CB TEMPO 2316/2319 27003G09MPS 4000 -SHSN BKN011CB TEMPO 2319/2322 26003G08MPS 2100 -SHSN BR FEW005 BKN011CB TEMPO 2322/2402 24003MPS 1200 SN BR SCT003 BKN010
NOTAMshow/hide NOTAM
AWOS   TABLE

Информация о ВПП


Диспетчерские позиции

Позывной Наименование органа УВД Частота
ULAA_APPАрхангельск-Подход122.0
ULAA_TWRАрхангельск-Вышка121.8



Спутниковое изображение